sensor_id;sensor_type;location;lat;lon;timestamp;P1;durP1;ratioP1;P2;durP2;ratioP2
28760;SDS011;15917;50.014;8.352;2023-04-30T00:01:28;17.95;;;10.23;;
28760;SDS011;15917;50.014;8.352;2023-04-30T00:03:54;16.75;;;10.50;;
28760;SDS011;15917;50.014;8.352;2023-04-30T00:06:20;17.88;;;9.95;;
28760;SDS011;15917;50.014;8.352;2023-04-30T00:08:45;17.80;;;10.27;;
28760;SDS011;15917;50.014;8.352;2023-04-30T00:11:11;16.02;;;10.45;;
28760;SDS011;15917;50.014;8.352;2023-04-30T00:13:36;21.77;;;10.95;;
28760;SDS011;15917;50.014;8.352;2023-04-30T00:16:02;16.83;;;9.90;;
28760;SDS011;15917;50.014;8.352;2023-04-30T00:18:28;14.30;;;9.25;;
28760;SDS011;15917;50.014;8.352;2023-04-30T00:20:53;16.08;;;9.60;;
28760;SDS011;15917;50.014;8.352;2023-04-30T00:23:19;15.60;;;9.98;;
28760;SDS011;15917;50.014;8.352;2023-04-30T00:25:44;17.55;;;9.20;;
28760;SDS011;15917;50.014;8.352;2023-04-30T00:28:11;13.23;;;9.07;;
28760;SDS011;15917;50.014;8.352;2023-04-30T00:30:36;20.13;;;9.10;;
28760;SDS011;15917;50.014;8.352;2023-04-30T00:33:02;19.45;;;10.48;;
28760;SDS011;15917;50.014;8.352;2023-04-30T00:35:28;15.30;;;9.13;;
28760;SDS011;15917;50.014;8.352;2023-04-30T00:37:53;20.40;;;10.00;;
28760;SDS011;15917;50.014;8.352;2023-04-30T00:40:19;18.48;;;9.10;;
28760;SDS011;15917;50.014;8.352;2023-04-30T00:42:45;15.75;;;8.82;;
28760;SDS011;15917;50.014;8.352;2023-04-30T00:45:10;16.45;;;9.30;;
28760;SDS011;15917;50.014;8.352;2023-04-30T00:47:36;14.65;;;9.82;;
28760;SDS011;15917;50.014;8.352;2023-04-30T00:50:02;16.13;;;9.98;;
28760;SDS011;15917;50.014;8.352;2023-04-30T00:52:27;16.67;;;10.00;;
28760;SDS011;15917;50.014;8.352;2023-04-30T00:54:53;18.60;;;10.35;;
28760;SDS011;15917;50.014;8.352;2023-04-30T00:57:19;15.85;;;10.30;;
28760;SDS011;15917;50.014;8.352;2023-04-30T00:59:47;15.95;;;10.10;;
28760;SDS011;15917;50.014;8.352;2023-04-30T01:02:12;16.80;;;10.18;;
28760;SDS011;15917;50.014;8.352;2023-04-30T01:04:39;18.95;;;9.88;;
28760;SDS011;15917;50.014;8.352;2023-04-30T01:07:04;19.60;;;10.73;;
28760;SDS011;15917;50.014;8.352;2023-04-30T01:09:31;18.73;;;10.23;;
28760;SDS011;15917;50.014;8.352;2023-04-30T01:12:12;17.77;;;11.45;;
28760;SDS011;15917;50.014;8.352;2023-04-30T01:14:56;20.48;;;10.98;;
28760;SDS011;15917;50.014;8.352;2023-04-30T01:20:00;23.13;;;10.55;;
28760;SDS011;15917;50.014;8.352;2023-04-30T01:22:35;17.33;;;10.25;;
28760;SDS011;15917;50.014;8.352;2023-04-30T01:28:15;23.42;;;12.15;;
28760;SDS011;15917;50.014;8.352;2023-04-30T01:30:44;17.58;;;10.60;;
28760;SDS011;15917;50.014;8.352;2023-04-30T01:33:10;18.52;;;11.63;;
28760;SDS011;15917;50.014;8.352;2023-04-30T01:44:16;18.83;;;11.95;;
28760;SDS011;15917;50.014;8.352;2023-04-30T01:47:12;31.13;;;14.15;;
28760;SDS011;15917;50.014;8.352;2023-04-30T01:50:07;33.40;;;13.50;;
28760;SDS011;15917;50.014;8.352;2023-04-30T01:53:01;20.33;;;12.63;;
28760;SDS011;15917;50.014;8.352;2023-04-30T01:55:32;19.85;;;12.73;;
28760;SDS011;15917;50.014;8.352;2023-04-30T01:58:02;30.35;;;14.02;;
28760;SDS011;15917;50.014;8.352;2023-04-30T02:00:30;23.90;;;13.18;;
28760;SDS011;15917;50.014;8.352;2023-04-30T02:02:56;24.15;;;13.32;;
28760;SDS011;15917;50.014;8.352;2023-04-30T02:05:22;25.73;;;13.90;;
28760;SDS011;15917;50.014;8.352;2023-04-30T02:07:49;25.50;;;14.32;;
28760;SDS011;15917;50.014;8.352;2023-04-30T02:10:16;24.08;;;13.98;;
28760;SDS011;15917;50.014;8.352;2023-04-30T02:12:46;23.67;;;12.60;;
28760;SDS011;15917;50.014;8.352;2023-04-30T02:15:11;23.33;;;12.95;;
28760;SDS011;15917;50.014;8.352;2023-04-30T02:20:05;23.70;;;13.70;;
28760;SDS011;15917;50.014;8.352;2023-04-30T02:22:32;24.60;;;13.35;;
28760;SDS011;15917;50.014;8.352;2023-04-30T02:24:58;20.02;;;13.23;;
28760;SDS011;15917;50.014;8.352;2023-04-30T02:27:24;24.55;;;13.00;;
28760;SDS011;15917;50.014;8.352;2023-04-30T02:29:51;23.23;;;14.25;;
28760;SDS011;15917;50.014;8.352;2023-04-30T02:32:17;23.80;;;13.27;;
28760;SDS011;15917;50.014;8.352;2023-04-30T02:34:43;24.30;;;12.27;;
28760;SDS011;15917;50.014;8.352;2023-04-30T02:37:09;27.95;;;14.02;;
28760;SDS011;15917;50.014;8.352;2023-04-30T02:39:35;22.80;;;12.70;;
28760;SDS011;15917;50.014;8.352;2023-04-30T02:42:00;22.13;;;12.82;;
28760;SDS011;15917;50.014;8.352;2023-04-30T02:44:27;25.15;;;13.70;;
28760;SDS011;15917;50.014;8.352;2023-04-30T02:46:53;24.50;;;14.30;;
28760;SDS011;15917;50.014;8.352;2023-04-30T02:49:18;22.38;;;12.52;;
28760;SDS011;15917;50.014;8.352;2023-04-30T02:51:44;25.25;;;12.95;;
28760;SDS011;15917;50.014;8.352;2023-04-30T02:54:10;24.60;;;13.85;;
28760;SDS011;15917;50.014;8.352;2023-04-30T02:56:36;24.27;;;14.02;;
28760;SDS011;15917;50.014;8.352;2023-04-30T02:59:03;25.47;;;14.00;;
28760;SDS011;15917;50.014;8.352;2023-04-30T03:01:29;21.65;;;12.60;;
28760;SDS011;15917;50.014;8.352;2023-04-30T03:03:55;22.77;;;12.93;;
28760;SDS011;15917;50.014;8.352;2023-04-30T03:06:20;22.85;;;13.70;;
28760;SDS011;15917;50.014;8.352;2023-04-30T03:08:46;25.48;;;13.90;;
28760;SDS011;15917;50.014;8.352;2023-04-30T03:11:12;23.25;;;14.05;;
28760;SDS011;15917;50.014;8.352;2023-04-30T03:13:38;27.75;;;13.90;;
28760;SDS011;15917;50.014;8.352;2023-04-30T03:16:03;28.17;;;15.05;;
28760;SDS011;15917;50.014;8.352;2023-04-30T03:18:30;29.92;;;14.10;;
28760;SDS011;15917;50.014;8.352;2023-04-30T03:20:55;22.60;;;13.70;;
28760;SDS011;15917;50.014;8.352;2023-04-30T03:23:21;30.55;;;13.75;;
28760;SDS011;15917;50.014;8.352;2023-04-30T03:25:47;25.35;;;13.52;;
28760;SDS011;15917;50.014;8.352;2023-04-30T03:28:13;22.33;;;14.40;;
28760;SDS011;15917;50.014;8.352;2023-04-30T03:30:40;22.83;;;13.73;;
28760;SDS011;15917;50.014;8.352;2023-04-30T03:33:05;25.02;;;14.70;;
28760;SDS011;15917;50.014;8.352;2023-04-30T03:35:32;25.65;;;15.05;;
28760;SDS011;15917;50.014;8.352;2023-04-30T03:37:59;33.30;;;15.30;;
28760;SDS011;15917;50.014;8.352;2023-04-30T03:40:24;28.25;;;14.55;;
28760;SDS011;15917;50.014;8.352;2023-04-30T03:42:50;25.13;;;14.70;;
28760;SDS011;15917;50.014;8.352;2023-04-30T03:45:16;24.35;;;14.20;;
28760;SDS011;15917;50.014;8.352;2023-04-30T03:47:42;36.80;;;16.52;;
28760;SDS011;15917;50.014;8.352;2023-04-30T03:50:08;31.65;;;16.10;;
28760;SDS011;15917;50.014;8.352;2023-04-30T03:52:34;32.25;;;16.52;;
28760;SDS011;15917;50.014;8.352;2023-04-30T03:55:03;30.75;;;16.48;;
28760;SDS011;15917;50.014;8.352;2023-04-30T03:57:30;31.13;;;16.60;;
28760;SDS011;15917;50.014;8.352;2023-04-30T03:59:57;31.38;;;15.98;;
28760;SDS011;15917;50.014;8.352;2023-04-30T04:02:24;32.80;;;15.57;;
28760;SDS011;15917;50.014;8.352;2023-04-30T04:04:50;26.60;;;14.70;;
28760;SDS011;15917;50.014;8.352;2023-04-30T04:07:15;31.73;;;14.57;;
28760;SDS011;15917;50.014;8.352;2023-04-30T04:09:41;28.92;;;14.60;;
28760;SDS011;15917;50.014;8.352;2023-04-30T04:12:07;26.35;;;15.65;;
28760;SDS011;15917;50.014;8.352;2023-04-30T04:14:34;30.83;;;16.88;;
28760;SDS011;15917;50.014;8.352;2023-04-30T04:17:00;30.70;;;16.13;;
28760;SDS011;15917;50.014;8.352;2023-04-30T04:19:27;31.73;;;16.02;;
28760;SDS011;15917;50.014;8.352;2023-04-30T04:21:52;27.42;;;15.55;;
28760;SDS011;15917;50.014;8.352;2023-04-30T04:24:19;30.33;;;16.45;;
28760;SDS011;15917;50.014;8.352;2023-04-30T04:26:45;31.08;;;16.92;;
28760;SDS011;15917;50.014;8.352;2023-04-30T04:29:10;37.00;;;17.73;;
28760;SDS011;15917;50.014;8.352;2023-04-30T04:31:37;28.98;;;17.63;;
28760;SDS011;15917;50.014;8.352;2023-04-30T04:34:05;40.83;;;17.83;;
28760;SDS011;15917;50.014;8.352;2023-04-30T04:36:31;30.95;;;15.82;;
28760;SDS011;15917;50.014;8.352;2023-04-30T04:38:58;32.50;;;16.05;;
28760;SDS011;15917;50.014;8.352;2023-04-30T04:41:26;27.10;;;16.10;;
28760;SDS011;15917;50.014;8.352;2023-04-30T04:43:53;32.05;;;16.45;;
28760;SDS011;15917;50.014;8.352;2023-04-30T04:46:19;27.00;;;15.35;;
28760;SDS011;15917;50.014;8.352;2023-04-30T04:48:45;28.13;;;15.82;;
28760;SDS011;15917;50.014;8.352;2023-04-30T04:51:11;26.55;;;15.93;;
28760;SDS011;15917;50.014;8.352;2023-04-30T04:53:36;27.08;;;15.20;;
28760;SDS011;15917;50.014;8.352;2023-04-30T04:56:03;30.42;;;15.70;;
28760;SDS011;15917;50.014;8.352;2023-04-30T04:58:29;30.48;;;15.32;;
28760;SDS011;15917;50.014;8.352;2023-04-30T05:00:55;24.48;;;13.57;;
28760;SDS011;15917;50.014;8.352;2023-04-30T05:03:21;22.98;;;13.98;;
28760;SDS011;15917;50.014;8.352;2023-04-30T05:05:48;23.77;;;13.55;;
28760;SDS011;15917;50.014;8.352;2023-04-30T05:08:13;23.48;;;13.30;;
28760;SDS011;15917;50.014;8.352;2023-04-30T05:10:40;27.15;;;14.52;;
28760;SDS011;15917;50.014;8.352;2023-04-30T05:13:06;22.73;;;13.93;;
28760;SDS011;15917;50.014;8.352;2023-04-30T05:15:31;22.02;;;13.23;;
28760;SDS011;15917;50.014;8.352;2023-04-30T05:17:57;21.63;;;12.20;;
28760;SDS011;15917;50.014;8.352;2023-04-30T05:20:22;21.23;;;13.13;;
28760;SDS011;15917;50.014;8.352;2023-04-30T05:22:48;25.15;;;12.88;;
28760;SDS011;15917;50.014;8.352;2023-04-30T05:25:14;24.35;;;12.10;;
28760;SDS011;15917;50.014;8.352;2023-04-30T05:27:39;19.08;;;11.00;;
28760;SDS011;15917;50.014;8.352;2023-04-30T05:30:05;22.52;;;11.57;;
28760;SDS011;15917;50.014;8.352;2023-04-30T05:32:33;23.88;;;11.57;;
28760;SDS011;15917;50.014;8.352;2023-04-30T05:34:59;17.75;;;10.90;;
28760;SDS011;15917;50.014;8.352;2023-04-30T05:37:25;23.60;;;11.45;;
28760;SDS011;15917;50.014;8.352;2023-04-30T05:39:51;21.27;;;9.73;;
28760;SDS011;15917;50.014;8.352;2023-04-30T05:42:18;22.83;;;10.90;;
28760;SDS011;15917;50.014;8.352;2023-04-30T05:44:47;22.92;;;11.15;;
28760;SDS011;15917;50.014;8.352;2023-04-30T05:47:13;17.07;;;10.13;;
28760;SDS011;15917;50.014;8.352;2023-04-30T05:49:39;16.90;;;9.90;;
28760;SDS011;15917;50.014;8.352;2023-04-30T05:52:05;18.83;;;10.77;;
28760;SDS011;15917;50.014;8.352;2023-04-30T05:54:30;18.98;;;9.55;;
28760;SDS011;15917;50.014;8.352;2023-04-30T05:56:56;18.38;;;10.27;;
28760;SDS011;15917;50.014;8.352;2023-04-30T05:59:22;20.13;;;10.95;;
28760;SDS011;15917;50.014;8.352;2023-04-30T06:01:48;16.90;;;10.05;;
28760;SDS011;15917;50.014;8.352;2023-04-30T06:04:14;22.40;;;10.90;;
28760;SDS011;15917;50.014;8.352;2023-04-30T06:06:39;17.00;;;9.02;;
28760;SDS011;15917;50.014;8.352;2023-04-30T06:09:06;22.65;;;9.57;;
28760;SDS011;15917;50.014;8.352;2023-04-30T06:11:32;24.15;;;9.60;;
28760;SDS011;15917;50.014;8.352;2023-04-30T06:13:57;16.15;;;9.10;;
28760;SDS011;15917;50.014;8.352;2023-04-30T06:16:23;20.55;;;8.77;;
28760;SDS011;15917;50.014;8.352;2023-04-30T06:18:49;16.08;;;9.00;;
28760;SDS011;15917;50.014;8.352;2023-04-30T06:21:14;19.13;;;10.57;;
28760;SDS011;15917;50.014;8.352;2023-04-30T06:23:40;19.73;;;9.10;;
28760;SDS011;15917;50.014;8.352;2023-04-30T06:26:05;17.98;;;9.48;;
28760;SDS011;15917;50.014;8.352;2023-04-30T06:28:31;23.45;;;9.30;;
28760;SDS011;15917;50.014;8.352;2023-04-30T06:30:57;16.63;;;9.68;;
28760;SDS011;15917;50.014;8.352;2023-04-30T06:33:23;17.27;;;8.50;;
28760;SDS011;15917;50.014;8.352;2023-04-30T06:35:48;23.45;;;9.13;;
28760;SDS011;15917;50.014;8.352;2023-04-30T06:38:19;24.30;;;9.48;;
28760;SDS011;15917;50.014;8.352;2023-04-30T06:40:45;16.13;;;8.80;;
28760;SDS011;15917;50.014;8.352;2023-04-30T06:43:11;15.48;;;8.88;;
28760;SDS011;15917;50.014;8.352;2023-04-30T06:45:37;13.88;;;8.13;;
28760;SDS011;15917;50.014;8.352;2023-04-30T06:48:03;15.30;;;8.02;;
28760;SDS011;15917;50.014;8.352;2023-04-30T06:50:29;13.95;;;7.35;;
28760;SDS011;15917;50.014;8.352;2023-04-30T06:52:54;13.77;;;8.05;;
28760;SDS011;15917;50.014;8.352;2023-04-30T06:55:20;17.33;;;8.18;;
28760;SDS011;15917;50.014;8.352;2023-04-30T06:57:46;13.50;;;7.07;;
28760;SDS011;15917;50.014;8.352;2023-04-30T07:00:11;19.95;;;7.35;;
28760;SDS011;15917;50.014;8.352;2023-04-30T07:02:39;11.25;;;6.80;;
28760;SDS011;15917;50.014;8.352;2023-04-30T07:05:05;13.32;;;7.03;;
28760;SDS011;15917;50.014;8.352;2023-04-30T07:07:31;12.18;;;5.90;;
28760;SDS011;15917;50.014;8.352;2023-04-30T07:09:57;16.92;;;6.72;;
28760;SDS011;15917;50.014;8.352;2023-04-30T07:12:23;12.00;;;6.57;;
28760;SDS011;15917;50.014;8.352;2023-04-30T07:14:49;10.88;;;6.18;;
28760;SDS011;15917;50.014;8.352;2023-04-30T07:17:14;10.05;;;5.82;;
28760;SDS011;15917;50.014;8.352;2023-04-30T07:19:40;11.32;;;6.32;;
28760;SDS011;15917;50.014;8.352;2023-04-30T07:22:06;13.52;;;5.28;;
28760;SDS011;15917;50.014;8.352;2023-04-30T07:24:32;10.68;;;5.53;;
28760;SDS011;15917;50.014;8.352;2023-04-30T07:26:58;13.10;;;4.85;;
28760;SDS011;15917;50.014;8.352;2023-04-30T07:29:26;9.05;;;5.50;;
28760;SDS011;15917;50.014;8.352;2023-04-30T07:31:53;12.95;;;5.05;;
28760;SDS011;15917;50.014;8.352;2023-04-30T07:34:19;13.63;;;5.55;;
28760;SDS011;15917;50.014;8.352;2023-04-30T07:36:45;9.73;;;4.55;;
28760;SDS011;15917;50.014;8.352;2023-04-30T07:39:12;10.38;;;4.32;;
28760;SDS011;15917;50.014;8.352;2023-04-30T07:41:37;6.82;;;4.32;;
28760;SDS011;15917;50.014;8.352;2023-04-30T07:44:03;12.13;;;5.15;;
28760;SDS011;15917;50.014;8.352;2023-04-30T07:46:29;9.05;;;4.53;;
28760;SDS011;15917;50.014;8.352;2023-04-30T07:48:55;9.98;;;4.68;;
28760;SDS011;15917;50.014;8.352;2023-04-30T07:51:21;10.88;;;4.60;;
28760;SDS011;15917;50.014;8.352;2023-04-30T07:53:46;8.70;;;4.78;;
28760;SDS011;15917;50.014;8.352;2023-04-30T07:56:12;9.93;;;4.88;;
28760;SDS011;15917;50.014;8.352;2023-04-30T07:58:37;12.02;;;4.90;;
28760;SDS011;15917;50.014;8.352;2023-04-30T08:01:03;11.10;;;5.45;;
28760;SDS011;15917;50.014;8.352;2023-04-30T08:03:29;15.32;;;5.10;;
28760;SDS011;15917;50.014;8.352;2023-04-30T08:05:55;15.15;;;4.45;;
28760;SDS011;15917;50.014;8.352;2023-04-30T08:08:20;14.00;;;4.75;;
28760;SDS011;15917;50.014;8.352;2023-04-30T08:10:46;11.50;;;4.80;;
28760;SDS011;15917;50.014;8.352;2023-04-30T08:13:11;9.60;;;3.85;;
28760;SDS011;15917;50.014;8.352;2023-04-30T08:15:37;5.55;;;3.92;;
28760;SDS011;15917;50.014;8.352;2023-04-30T08:18:04;11.40;;;4.38;;
28760;SDS011;15917;50.014;8.352;2023-04-30T08:20:30;7.28;;;3.83;;
28760;SDS011;15917;50.014;8.352;2023-04-30T08:22:56;6.07;;;3.70;;
28760;SDS011;15917;50.014;8.352;2023-04-30T08:25:23;8.20;;;4.07;;
28760;SDS011;15917;50.014;8.352;2023-04-30T08:27:48;4.90;;;3.60;;
28760;SDS011;15917;50.014;8.352;2023-04-30T08:30:14;5.75;;;3.45;;
28760;SDS011;15917;50.014;8.352;2023-04-30T08:32:40;13.98;;;3.42;;
28760;SDS011;15917;50.014;8.352;2023-04-30T08:35:06;9.40;;;3.38;;
28760;SDS011;15917;50.014;8.352;2023-04-30T08:37:32;7.53;;;4.38;;
28760;SDS011;15917;50.014;8.352;2023-04-30T08:39:58;4.60;;;3.35;;
28760;SDS011;15917;50.014;8.352;2023-04-30T08:42:24;9.63;;;3.72;;
28760;SDS011;15917;50.014;8.352;2023-04-30T08:44:53;12.98;;;3.85;;
28760;SDS011;15917;50.014;8.352;2023-04-30T08:47:19;6.70;;;3.10;;
28760;SDS011;15917;50.014;8.352;2023-04-30T08:49:46;10.15;;;3.80;;
28760;SDS011;15917;50.014;8.352;2023-04-30T08:52:11;15.57;;;4.60;;
28760;SDS011;15917;50.014;8.352;2023-04-30T08:54:37;10.77;;;3.10;;
28760;SDS011;15917;50.014;8.352;2023-04-30T08:57:03;8.25;;;4.07;;
28760;SDS011;15917;50.014;8.352;2023-04-30T08:59:29;6.93;;;3.40;;
28760;SDS011;15917;50.014;8.352;2023-04-30T09:01:55;6.85;;;3.35;;
28760;SDS011;15917;50.014;8.352;2023-04-30T09:04:20;10.73;;;4.05;;
28760;SDS011;15917;50.014;8.352;2023-04-30T09:06:46;7.20;;;3.13;;
28760;SDS011;15917;50.014;8.352;2023-04-30T09:09:12;5.10;;;2.67;;
28760;SDS011;15917;50.014;8.352;2023-04-30T09:11:39;17.05;;;3.17;;
28760;SDS011;15917;50.014;8.352;2023-04-30T09:14:06;8.13;;;2.90;;
28760;SDS011;15917;50.014;8.352;2023-04-30T09:16:45;7.97;;;3.10;;
28760;SDS011;15917;50.014;8.352;2023-04-30T09:19:22;7.20;;;2.78;;
28760;SDS011;15917;50.014;8.352;2023-04-30T09:21:52;13.57;;;3.13;;
28760;SDS011;15917;50.014;8.352;2023-04-30T09:24:18;4.80;;;3.00;;
28760;SDS011;15917;50.014;8.352;2023-04-30T09:26:44;7.40;;;2.90;;
28760;SDS011;15917;50.014;8.352;2023-04-30T09:29:11;9.20;;;3.78;;
28760;SDS011;15917;50.014;8.352;2023-04-30T09:31:37;8.65;;;3.38;;
28760;SDS011;15917;50.014;8.352;2023-04-30T09:34:04;6.65;;;2.75;;
28760;SDS011;15917;50.014;8.352;2023-04-30T09:36:30;5.18;;;2.45;;
28760;SDS011;15917;50.014;8.352;2023-04-30T09:39:06;8.38;;;2.55;;
28760;SDS011;15917;50.014;8.352;2023-04-30T09:41:32;4.38;;;2.45;;
28760;SDS011;15917;50.014;8.352;2023-04-30T09:43:59;11.20;;;2.58;;
28760;SDS011;15917;50.014;8.352;2023-04-30T09:46:29;7.25;;;2.20;;
28760;SDS011;15917;50.014;8.352;2023-04-30T09:48:59;12.30;;;2.45;;
28760;SDS011;15917;50.014;8.352;2023-04-30T09:51:26;6.85;;;2.75;;
28760;SDS011;15917;50.014;8.352;2023-04-30T09:53:52;7.60;;;3.10;;
28760;SDS011;15917;50.014;8.352;2023-04-30T09:56:20;4.03;;;1.90;;
28760;SDS011;15917;50.014;8.352;2023-04-30T09:58:51;6.35;;;2.10;;
28760;SDS011;15917;50.014;8.352;2023-04-30T10:01:19;4.15;;;2.38;;
28760;SDS011;15917;50.014;8.352;2023-04-30T10:03:46;7.90;;;2.13;;
28760;SDS011;15917;50.014;8.352;2023-04-30T10:06:13;3.90;;;2.22;;
28760;SDS011;15917;50.014;8.352;2023-04-30T10:08:50;15.60;;;2.50;;
28760;SDS011;15917;50.014;8.352;2023-04-30T10:11:20;6.30;;;2.05;;
28760;SDS011;15917;50.014;8.352;2023-04-30T10:13:59;7.03;;;2.40;;
28760;SDS011;15917;50.014;8.352;2023-04-30T10:19:09;5.82;;;2.47;;
28760;SDS011;15917;50.014;8.352;2023-04-30T10:21:42;4.88;;;1.58;;
28760;SDS011;15917;50.014;8.352;2023-04-30T10:24:11;3.53;;;1.35;;
28760;SDS011;15917;50.014;8.352;2023-04-30T10:26:38;3.17;;;1.70;;
28760;SDS011;15917;50.014;8.352;2023-04-30T10:29:06;4.65;;;1.88;;
28760;SDS011;15917;50.014;8.352;2023-04-30T10:31:32;3.75;;;1.92;;
28760;SDS011;15917;50.014;8.352;2023-04-30T10:36:55;5.05;;;1.77;;
28760;SDS011;15917;50.014;8.352;2023-04-30T10:39:25;2.95;;;1.55;;
28760;SDS011;15917;50.014;8.352;2023-04-30T10:42:01;4.68;;;1.90;;
28760;SDS011;15917;50.014;8.352;2023-04-30T10:44:31;4.68;;;1.95;;
28760;SDS011;15917;50.014;8.352;2023-04-30T10:46:59;3.80;;;1.75;;
28760;SDS011;15917;50.014;8.352;2023-04-30T10:49:28;7.35;;;1.40;;
28760;SDS011;15917;50.014;8.352;2023-04-30T10:51:56;4.38;;;1.80;;
28760;SDS011;15917;50.014;8.352;2023-04-30T10:54:28;2.05;;;1.30;;
28760;SDS011;15917;50.014;8.352;2023-04-30T10:59:42;3.80;;;1.50;;
28760;SDS011;15917;50.014;8.352;2023-04-30T11:02:10;2.92;;;1.73;;
28760;SDS011;15917;50.014;8.352;2023-04-30T11:05:07;3.33;;;1.40;;
28760;SDS011;15917;50.014;8.352;2023-04-30T11:07:31;4.53;;;1.75;;
28760;SDS011;15917;50.014;8.352;2023-04-30T11:09:57;5.97;;;2.08;;
28760;SDS011;15917;50.014;8.352;2023-04-30T11:17:26;3.35;;;1.30;;
28760;SDS011;15917;50.014;8.352;2023-04-30T11:19:52;3.75;;;1.70;;
28760;SDS011;15917;50.014;8.352;2023-04-30T11:22:20;5.97;;;1.80;;
28760;SDS011;15917;50.014;8.352;2023-04-30T11:24:51;5.55;;;1.83;;
28760;SDS011;15917;50.014;8.352;2023-04-30T11:27:27;2.65;;;1.60;;
28760;SDS011;15917;50.014;8.352;2023-04-30T11:29:54;1.90;;;1.40;;
28760;SDS011;15917;50.014;8.352;2023-04-30T11:32:22;2.00;;;1.40;;
28760;SDS011;15917;50.014;8.352;2023-04-30T11:34:49;2.00;;;1.40;;
28760;SDS011;15917;50.014;8.352;2023-04-30T11:37:19;4.38;;;1.40;;
28760;SDS011;15917;50.014;8.352;2023-04-30T11:39:54;2.60;;;1.50;;
28760;SDS011;15917;50.014;8.352;2023-04-30T11:42:21;2.85;;;1.17;;
28760;SDS011;15917;50.014;8.352;2023-04-30T11:44:47;1.27;;;1.00;;
28760;SDS011;15917;50.014;8.352;2023-04-30T11:47:12;4.80;;;1.10;;
28760;SDS011;15917;50.014;8.352;2023-04-30T11:49:39;3.65;;;1.30;;
28760;SDS011;15917;50.014;8.352;2023-04-30T11:52:05;6.07;;;1.13;;
28760;SDS011;15917;50.014;8.352;2023-04-30T11:54:35;1.20;;;0.90;;
28760;SDS011;15917;50.014;8.352;2023-04-30T11:57:02;1.95;;;0.93;;
28760;SDS011;15917;50.014;8.352;2023-04-30T11:59:31;2.25;;;0.88;;
28760;SDS011;15917;50.014;8.352;2023-04-30T12:02:05;4.15;;;1.10;;
28760;SDS011;15917;50.014;8.352;2023-04-30T12:04:31;1.17;;;0.75;;
28760;SDS011;15917;50.014;8.352;2023-04-30T12:06:58;5.03;;;1.30;;
28760;SDS011;15917;50.014;8.352;2023-04-30T12:09:24;1.52;;;1.00;;
28760;SDS011;15917;50.014;8.352;2023-04-30T12:11:49;1.10;;;0.80;;
28760;SDS011;15917;50.014;8.352;2023-04-30T12:14:15;1.42;;;1.00;;
28760;SDS011;15917;50.014;8.352;2023-04-30T12:19:14;2.10;;;1.10;;
28760;SDS011;15917;50.014;8.352;2023-04-30T12:21:41;1.60;;;1.13;;
28760;SDS011;15917;50.014;8.352;2023-04-30T12:24:14;2.30;;;0.70;;
28760;SDS011;15917;50.014;8.352;2023-04-30T12:26:41;4.68;;;0.90;;
28760;SDS011;15917;50.014;8.352;2023-04-30T12:29:10;1.20;;;0.90;;
28760;SDS011;15917;50.014;8.352;2023-04-30T12:31:39;3.33;;;0.70;;
28760;SDS011;15917;50.014;8.352;2023-04-30T12:34:09;0.77;;;0.47;;
28760;SDS011;15917;50.014;8.352;2023-04-30T12:36:36;1.20;;;0.57;;
28760;SDS011;15917;50.014;8.352;2023-04-30T12:39:13;0.77;;;0.60;;
28760;SDS011;15917;50.014;8.352;2023-04-30T12:41:44;1.42;;;0.63;;
28760;SDS011;15917;50.014;8.352;2023-04-30T12:46:47;1.73;;;0.65;;
28760;SDS011;15917;50.014;8.352;2023-04-30T12:49:27;1.58;;;0.70;;
28760;SDS011;15917;50.014;8.352;2023-04-30T12:52:09;1.35;;;0.70;;
28760;SDS011;15917;50.014;8.352;2023-04-30T12:54:37;0.75;;;0.70;;
28760;SDS011;15917;50.014;8.352;2023-04-30T12:57:10;0.95;;;0.77;;
28760;SDS011;15917;50.014;8.352;2023-04-30T12:59:49;0.73;;;0.50;;
28760;SDS011;15917;50.014;8.352;2023-04-30T13:02:22;0.57;;;0.50;;
28760;SDS011;15917;50.014;8.352;2023-04-30T13:04:49;2.63;;;0.70;;
28760;SDS011;15917;50.014;8.352;2023-04-30T13:07:15;2.67;;;0.50;;
28760;SDS011;15917;50.014;8.352;2023-04-30T13:09:41;0.50;;;0.47;;
28760;SDS011;15917;50.014;8.352;2023-04-30T13:12:06;3.15;;;0.40;;
28760;SDS011;15917;50.014;8.352;2023-04-30T13:14:32;0.57;;;0.57;;
28760;SDS011;15917;50.014;8.352;2023-04-30T13:16:58;1.90;;;0.50;;
28760;SDS011;15917;50.014;8.352;2023-04-30T13:19:24;5.25;;;0.55;;
28760;SDS011;15917;50.014;8.352;2023-04-30T13:21:50;2.47;;;0.70;;
28760;SDS011;15917;50.014;8.352;2023-04-30T13:24:16;2.55;;;0.80;;
28760;SDS011;15917;50.014;8.352;2023-04-30T13:26:41;0.82;;;0.57;;
28760;SDS011;15917;50.014;8.352;2023-04-30T13:29:07;0.55;;;0.50;;
28760;SDS011;15917;50.014;8.352;2023-04-30T13:31:33;2.28;;;0.70;;
28760;SDS011;15917;50.014;8.352;2023-04-30T13:33:59;0.70;;;0.57;;
28760;SDS011;15917;50.014;8.352;2023-04-30T13:36:24;1.58;;;0.65;;
28760;SDS011;15917;50.014;8.352;2023-04-30T13:38:51;0.50;;;0.50;;
28760;SDS011;15917;50.014;8.352;2023-04-30T13:41:17;4.82;;;1.30;;
28760;SDS011;15917;50.014;8.352;2023-04-30T13:43:42;1.58;;;0.80;;
28760;SDS011;15917;50.014;8.352;2023-04-30T13:46:10;0.75;;;0.60;;
28760;SDS011;15917;50.014;8.352;2023-04-30T13:48:36;0.63;;;0.60;;
28760;SDS011;15917;50.014;8.352;2023-04-30T13:51:01;1.98;;;0.68;;
28760;SDS011;15917;50.014;8.352;2023-04-30T13:53:27;1.23;;;0.63;;
28760;SDS011;15917;50.014;8.352;2023-04-30T13:55:52;3.85;;;0.70;;
28760;SDS011;15917;50.014;8.352;2023-04-30T13:58:18;1.05;;;0.47;;
28760;SDS011;15917;50.014;8.352;2023-04-30T14:00:44;1.30;;;0.60;;
28760;SDS011;15917;50.014;8.352;2023-04-30T14:03:10;2.05;;;0.80;;
28760;SDS011;15917;50.014;8.352;2023-04-30T14:05:36;0.95;;;0.60;;
28760;SDS011;15917;50.014;8.352;2023-04-30T14:08:03;0.40;;;0.40;;
28760;SDS011;15917;50.014;8.352;2023-04-30T14:10:29;0.60;;;0.60;;
28760;SDS011;15917;50.014;8.352;2023-04-30T14:12:56;2.28;;;0.50;;
28760;SDS011;15917;50.014;8.352;2023-04-30T14:15:21;0.40;;;0.40;;
28760;SDS011;15917;50.014;8.352;2023-04-30T14:17:48;1.17;;;0.60;;
28760;SDS011;15917;50.014;8.352;2023-04-30T14:20:13;0.50;;;0.50;;
28760;SDS011;15917;50.014;8.352;2023-04-30T14:22:39;0.70;;;0.50;;
28760;SDS011;15917;50.014;8.352;2023-04-30T14:25:05;1.33;;;0.70;;
28760;SDS011;15917;50.014;8.352;2023-04-30T14:27:31;3.47;;;0.90;;
28760;SDS011;15917;50.014;8.352;2023-04-30T14:29:57;1.38;;;0.95;;
28760;SDS011;15917;50.014;8.352;2023-04-30T14:32:26;2.10;;;0.60;;
28760;SDS011;15917;50.014;8.352;2023-04-30T14:34:52;3.63;;;0.70;;
28760;SDS011;15917;50.014;8.352;2023-04-30T14:37:18;2.08;;;0.73;;
28760;SDS011;15917;50.014;8.352;2023-04-30T14:39:44;0.95;;;0.55;;
28760;SDS011;15917;50.014;8.352;2023-04-30T14:42:10;2.40;;;0.55;;
28760;SDS011;15917;50.014;8.352;2023-04-30T14:44:36;3.42;;;0.50;;
28760;SDS011;15917;50.014;8.352;2023-04-30T14:47:02;1.85;;;0.52;;
28760;SDS011;15917;50.014;8.352;2023-04-30T14:49:28;1.00;;;0.70;;
28760;SDS011;15917;50.014;8.352;2023-04-30T14:51:54;0.63;;;0.40;;
28760;SDS011;15917;50.014;8.352;2023-04-30T14:54:20;2.40;;;0.60;;
28760;SDS011;15917;50.014;8.352;2023-04-30T14:56:46;0.30;;;0.30;;
28760;SDS011;15917;50.014;8.352;2023-04-30T14:59:12;0.50;;;0.43;;
28760;SDS011;15917;50.014;8.352;2023-04-30T15:01:38;0.60;;;0.60;;
28760;SDS011;15917;50.014;8.352;2023-04-30T15:04:04;2.53;;;0.60;;
28760;SDS011;15917;50.014;8.352;2023-04-30T15:06:30;2.90;;;0.73;;
28760;SDS011;15917;50.014;8.352;2023-04-30T15:08:56;1.58;;;0.57;;
28760;SDS011;15917;50.014;8.352;2023-04-30T15:11:21;0.90;;;0.50;;